Monroe Regional Airport
KMLU : now visible

Airfield :











YOU CAN JOIN US ON...

 
LOGIN :

Register | Disclaimer

   EN    FR    IT 

 









Legend :    VFR   Marginal VFR   IFR   Intensive IFR   Very Intensive IFR
Visi :
Ceiling :
>= 8 km
>= 3000ft
5 to 8 km
1000 to 3000 ft
1500m to 5 km
500 to 1000 ft
800 to 1500m
200 to 500 ft
< 800m
< 200 ft
Symbols :   Thunderstorms  Fog  Heavy snow  Heavy precipitations  Wind > 20 kt






- Airport Elevation : 79 ft
- IATA code : MLU


KMLU - Monroe Regional

CURRENT METAR :
  • 271607Z 36009KT 10SM SCT019 09/05 A3021 RMK AO2 T00940050

EXPIRED METARs :
  • 271553Z 01013KT 10SM BKN019 09/05 A3020 RMK AO2 SLP227 T00940050
  • 271514Z 34012KT 10SM OVC018 08/05 A3018 RMK AO2 T00830050
  • 271501Z 35015KT 10SM BKN014 OVC020 08/04 A3018 RMK AO2 T00780044
  • 271453Z 34016KT 10SM BKN015 OVC020 08/04 A3018 RMK AO2 SLP220 T00780044 51039
  • 271428Z 34016G22KT 10SM OVC015 08/05 A3017 RMK AO2 T00780050
  • 271409Z 34015KT 10SM OVC014 08/05 A3016 RMK AO2 T00780050
  • 271353Z 33016KT 10SM SCT015 BKN090 08/05 A3015 RMK AO2 SLP210 T00830050
  • 271334Z 35010KT 10SM SCT017 BKN060 BKN090 08/06 A3013 RMK AO2 T00830056

TAF KMLU
Valid from the 27 at 12:00 until the 28 at 12:00 UTC


271140Z 2712/2812 36008KT P6SM OVC050
TEMPO 2712/2715 35008KT P6SM BKN025
FM271500 35015G24KT P6SM BKN035
FM271900 34013G19KT P6SM FEW250
FM280000 36010KT P6SM SKC
FM280900 03007KT P6SM SKC
KZFW FIR / North America



MET'MAP, your aeronautical weather chart ! - Copyright ORBIFLY December 2007 - Disclaimer

ORBIFLY MET'MAP TEAM :

Programming & Development : Alexandra Zaïnal
Concept & original design : Baudouin d'Aumeries
Assistance for programming : Marc-Olivier Méhu
Technical & hardware support : Manuel Goepfert

Contact : metmap@orbifly.com




SOURCES & CREDITS :

   NOAA       Earth
Advisory